Time;durP1;ratioP1;P1;durP2;ratioP2;P2;SDS_P1;SDS_P2;PMS_P1;PMS_P2;Temp;Humidity;BMP_temperature;BMP_pressure;BME280_temperature;BME280_humidity;BME280_pressure;Samples;Min_cycle;Max_cycle;Signal;HPM_P1;HPM_P2
2022/05/21 00:01:33;;;;;;;3.42;2.35;;;17.60;62.90;;;;;;4970998;28;20464;-75
2022/05/21 00:03:59;;;;;;;4.60;2.75;;;17.60;62.90;;;;;;4971215;28;20022;-76
2022/05/21 00:06:25;;;;;;;3.83;2.90;;;17.60;63.00;;;;;;4970131;28;20039;-77
2022/05/21 00:08:51;;;;;;;3.80;2.55;;;17.50;63.00;;;;;;4937943;28;20045;-76
2022/05/21 00:11:18;;;;;;;3.78;2.58;;;17.50;63.00;;;;;;4953561;28;20499;-75
2022/05/21 00:13:45;;;;;;;4.05;2.90;;;17.50;63.00;;;;;;4971217;28;20038;-76
2022/05/21 00:16:11;;;;;;;4.00;2.90;;;17.50;63.10;;;;;;4970931;28;20058;-76
2022/05/21 00:18:36;;;;;;;4.30;2.95;;;17.50;63.10;;;;;;4978046;28;20432;-76
2022/05/21 00:21:03;;;;;;;4.78;2.85;;;17.40;63.10;;;;;;4969614;28;20101;-76
2022/05/21 00:23:31;;;;;;;4.53;3.03;;;17.40;63.10;;;;;;4971076;28;20137;-75
2022/05/21 00:26:07;;;;;;;3.88;2.92;;;17.40;63.10;;;;;;4952968;28;20027;-76
2022/05/21 00:28:35;;;;;;;4.43;3.10;;;17.40;63.20;;;;;;4969757;28;20108;-76
2022/05/21 00:31:02;;;;;;;5.07;2.97;;;17.40;63.20;;;;;;4969787;28;20121;-76
2022/05/21 00:33:28;;;;;;;3.40;2.65;;;17.30;63.20;;;;;;4970028;28;20109;-75
2022/05/21 00:35:54;;;;;;;4.28;3.00;;;17.30;63.20;;;;;;4969911;28;20033;-76
2022/05/21 00:38:21;;;;;;;4.30;2.90;;;17.30;63.20;;;;;;4970527;28;20049;-76
2022/05/21 00:40:48;;;;;;;4.03;3.00;;;17.30;63.20;;;;;;4970164;28;20340;-75
2022/05/21 00:43:59;;;;;;;4.00;3.03;;;17.30;63.30;;;;;;4952823;28;20514;-76
2022/05/21 00:46:30;;;;;;;4.88;3.20;;;17.30;63.50;;;;;;4918494;29;20051;-75
2022/05/21 00:49:20;;;;;;;4.47;3.40;;;17.20;63.20;;;;;;4926758;29;20047;-76
2022/05/21 00:51:53;;;;;;;4.40;2.78;;;17.20;63.40;;;;;;4950576;28;20037;-75
2022/05/21 00:54:24;;;;;;;4.60;3.13;;;17.20;63.40;;;;;;4967126;28;20019;-75
2022/05/21 00:56:59;;;;;;;4.13;3.08;;;17.20;63.40;;;;;;4971518;28;20019;-76
2022/05/21 00:59:47;;;;;;;4.15;3.15;;;17.10;63.50;;;;;;4953233;28;20516;-76
2022/05/21 01:02:17;;;;;;;4.28;3.38;;;17.10;63.50;;;;;;4968869;28;20476;-75
2022/05/21 01:04:44;;;;;;;5.25;3.58;;;17.20;63.50;;;;;;4953900;28;20451;-76
2022/05/21 01:07:12;;;;;;;4.63;3.40;;;17.10;63.50;;;;;;4954636;28;20042;-74
2022/05/21 01:09:40;;;;;;;4.88;3.30;;;17.10;63.50;;;;;;4970621;28;20059;-75
2022/05/21 01:12:08;;;;;;;4.35;3.35;;;17.10;63.60;;;;;;4968640;28;20051;-76
2022/05/21 01:14:34;;;;;;;5.28;3.80;;;17.10;63.60;;;;;;4969161;28;20023;-76
2022/05/21 01:17:01;;;;;;;4.03;2.97;;;17.10;63.60;;;;;;4953822;28;20023;-78
2022/05/21 01:19:27;;;;;;;5.25;3.55;;;17.10;63.70;;;;;;4973413;28;20023;-75
2022/05/21 01:21:53;;;;;;;5.18;3.78;;;17.10;63.60;;;;;;4972810;28;20038;-76
2022/05/21 01:24:19;;;;;;;4.90;3.72;;;17.00;63.60;;;;;;4966268;28;20388;-76
2022/05/21 01:26:45;;;;;;;5.55;3.90;;;17.10;63.60;;;;;;4954237;28;20114;-76
2022/05/21 01:29:31;;;;;;;5.65;4.07;;;17.00;63.60;;;;;;4972132;28;20364;-76
2022/05/21 01:31:57;;;;;;;5.28;3.70;;;17.00;63.80;;;;;;4972824;28;20050;-76
2022/05/21 01:34:23;;;;;;;5.40;3.75;;;17.00;63.60;;;;;;4957078;28;20081;-76
2022/05/21 01:36:49;;;;;;;5.53;3.95;;;17.00;63.70;;;;;;4956957;28;20034;-77
2022/05/21 01:39:15;;;;;;;5.38;3.60;;;17.00;63.70;;;;;;4972488;28;20097;-79
2022/05/21 01:41:45;;;;;;;5.72;4.22;;;17.00;63.70;;;;;;4973235;28;20031;-76
2022/05/21 01:46:56;;;;;;;5.32;4.05;;;17.00;63.80;;;;;;4974519;28;20023;-76
2022/05/21 01:49:21;;;;;;;5.25;3.70;;;17.00;63.70;;;;;;4972193;28;20037;-76
2022/05/21 01:51:47;;;;;;;4.53;3.17;;;17.00;63.80;;;;;;4953684;28;20438;-76
2022/05/21 01:54:13;;;;;;;5.88;4.07;;;16.90;63.80;;;;;;4972376;28;20035;-76
2022/05/21 01:56:39;;;;;;;4.55;3.40;;;16.90;63.80;;;;;;4972683;28;20023;-77
2022/05/21 01:59:05;;;;;;;5.22;3.88;;;16.90;63.80;;;;;;4973623;28;20038;-76
2022/05/21 02:01:31;;;;;;;4.97;3.97;;;16.90;63.80;;;;;;4955469;28;20442;-76
2022/05/21 02:03:56;;;;;;;5.00;3.63;;;16.90;63.80;;;;;;4972475;28;20078;-76
2022/05/21 02:06:22;;;;;;;5.20;3.78;;;16.90;63.80;;;;;;4939136;28;20039;-76
2022/05/21 02:08:48;;;;;;;5.80;3.90;;;16.90;63.90;;;;;;4938965;28;20464;-76
2022/05/21 02:11:13;;;;;;;4.63;3.58;;;16.90;63.80;;;;;;4975735;28;20054;-75
2022/05/21 02:13:39;;;;;;;5.93;4.20;;;16.90;63.90;;;;;;4972410;28;20130;-76
2022/05/21 02:16:05;;;;;;;6.00;4.30;;;16.90;63.90;;;;;;4956372;28;20019;-76
2022/05/21 02:18:31;;;;;;;4.80;3.75;;;16.90;63.90;;;;;;4971952;28;20065;-76
2022/05/21 02:20:57;;;;;;;6.55;4.00;;;16.90;63.90;;;;;;4950569;28;20520;-75
2022/05/21 02:23:23;;;;;;;4.40;3.60;;;16.90;63.90;;;;;;4971329;28;20046;-76
2022/05/21 02:25:49;;;;;;;4.80;3.55;;;16.90;63.90;;;;;;4971927;28;20031;-76
2022/05/21 02:28:15;;;;;;;6.05;4.30;;;16.90;64.00;;;;;;4956835;28;20031;-76
2022/05/21 02:30:42;;;;;;;5.18;3.97;;;16.90;64.00;;;;;;4972420;28;20027;-76
2022/05/21 02:33:08;;;;;;;4.38;3.47;;;16.90;64.00;;;;;;4972120;28;20109;-75
2022/05/21 02:35:34;;;;;;;5.32;4.05;;;16.90;64.00;;;;;;4971401;28;20170;-76
2022/05/21 02:40:46;;;;;;;4.90;3.70;;;16.80;64.00;;;;;;4966901;28;20031;-76
2022/05/21 02:43:11;;;;;;;5.15;3.55;;;16.80;63.90;;;;;;4971963;28;20117;-76
2022/05/21 02:45:37;;;;;;;5.72;3.83;;;16.80;63.90;;;;;;4971123;28;20035;-76
2022/05/21 02:48:03;;;;;;;4.95;3.50;;;16.80;64.00;;;;;;4973011;28;20081;-76
2022/05/21 02:50:32;;;;;;;4.85;3.75;;;16.80;64.00;;;;;;4937868;28;20166;-76
2022/05/21 02:52:59;;;;;;;5.97;4.05;;;16.80;64.00;;;;;;4971911;28;20023;-75
2022/05/21 02:55:25;;;;;;;4.38;3.45;;;16.80;64.00;;;;;;4971867;28;20114;-75
2022/05/21 02:57:51;;;;;;;5.40;3.72;;;16.80;64.00;;;;;;4972371;28;20508;-75
2022/05/21 03:00:20;;;;;;;4.35;3.53;;;16.80;64.00;;;;;;4972954;28;20030;-75
2022/05/21 03:02:46;;;;;;;4.45;3.28;;;16.80;64.10;;;;;;4981109;28;20073;-75
2022/05/21 03:05:13;;;;;;;4.38;3.47;;;16.80;64.00;;;;;;4973185;28;20039;-75
2022/05/21 03:07:41;;;;;;;5.30;3.80;;;16.80;64.00;;;;;;4971247;28;20031;-75
2022/05/21 03:10:21;;;;;;;4.75;3.30;;;16.80;64.00;;;;;;4988282;28;20038;-75
2022/05/21 03:12:59;;;;;;;4.45;3.17;;;16.80;64.00;;;;;;4972829;28;20141;-76
2022/05/21 03:15:33;;;;;;;5.43;3.58;;;16.80;64.10;;;;;;4971052;28;20154;-75
2022/05/21 03:18:00;;;;;;;5.03;3.70;;;16.80;64.10;;;;;;4962124;28;20126;-75
2022/05/21 03:20:26;;;;;;;4.13;3.17;;;16.80;64.00;;;;;;4971578;28;20092;-75
2022/05/21 03:22:52;;;;;;;4.35;3.35;;;16.80;64.00;;;;;;4971163;28;20133;-75
2022/05/21 03:25:19;;;;;;;4.82;3.72;;;16.80;64.10;;;;;;4971183;28;20480;-75
2022/05/21 03:27:47;;;;;;;4.90;3.50;;;16.80;64.20;;;;;;4971098;28;20030;-75
2022/05/21 03:30:16;;;;;;;5.38;3.75;;;16.80;64.10;;;;;;4954608;28;20095;-75
2022/05/21 03:32:42;;;;;;;3.50;3.15;;;16.80;64.10;;;;;;4971158;28;20031;-76
2022/05/21 03:35:09;;;;;;;5.22;3.60;;;16.80;64.10;;;;;;4971509;28;20038;-75
2022/05/21 03:37:37;;;;;;;4.95;3.50;;;16.80;64.20;;;;;;4971085;28;20027;-75
2022/05/21 03:40:06;;;;;;;4.10;3.17;;;16.80;64.20;;;;;;4970803;28;20023;-75
2022/05/21 03:42:31;;;;;;;4.55;3.47;;;16.80;64.20;;;;;;4971741;28;20148;-76
2022/05/21 03:44:57;;;;;;;4.38;3.22;;;16.80;64.20;;;;;;4971088;28;20121;-75
2022/05/21 03:47:23;;;;;;;4.72;3.72;;;16.70;64.10;;;;;;4970534;28;20070;-76
2022/05/21 03:49:49;;;;;;;4.07;3.05;;;16.80;64.20;;;;;;4972184;28;20027;-75
2022/05/21 03:52:14;;;;;;;4.82;3.33;;;16.80;64.20;;;;;;4970637;28;20038;-75
2022/05/21 03:54:40;;;;;;;4.63;3.70;;;16.80;64.20;;;;;;4954361;28;20030;-75
2022/05/21 03:57:06;;;;;;;4.03;2.83;;;16.80;64.20;;;;;;4972090;28;20031;-75
2022/05/21 03:59:34;;;;;;;4.50;3.20;;;16.80;64.20;;;;;;4954065;28;20035;-75
2022/05/21 04:02:01;;;;;;;6.00;3.35;;;16.70;64.20;;;;;;4971562;28;20043;-75
2022/05/21 04:04:27;;;;;;;3.67;2.97;;;16.70;64.20;;;;;;4954590;28;20033;-75
2022/05/21 04:06:53;;;;;;;4.60;3.45;;;16.70;64.20;;;;;;4938559;28;20054;-74
2022/05/21 04:09:18;;;;;;;3.50;2.97;;;16.70;64.20;;;;;;4949159;28;20047;-75
2022/05/21 04:11:44;;;;;;;4.72;3.00;;;16.70;64.30;;;;;;4968474;28;20094;-76
2022/05/21 04:14:13;;;;;;;4.13;3.10;;;16.70;64.20;;;;;;4954439;28;20060;-75
2022/05/21 04:16:38;;;;;;;3.60;2.95;;;16.80;64.30;;;;;;4971225;28;20118;-76
2022/05/21 04:19:04;;;;;;;3.65;2.85;;;16.80;64.30;;;;;;4970446;28;20571;-75
2022/05/21 04:21:30;;;;;;;4.45;3.10;;;16.70;64.30;;;;;;4951037;28;20043;-75
2022/05/21 04:23:56;;;;;;;4.55;3.00;;;16.70;64.30;;;;;;4969665;28;20031;-75
2022/05/21 04:26:22;;;;;;;4.20;3.28;;;16.70;64.30;;;;;;4971546;28;20030;-75
2022/05/21 04:28:48;;;;;;;3.72;2.90;;;16.80;64.30;;;;;;4971574;28;20023;-75
2022/05/21 04:31:14;;;;;;;4.57;3.20;;;16.70;64.30;;;;;;4969863;28;20053;-75
2022/05/21 04:33:39;;;;;;;3.97;2.72;;;16.70;64.30;;;;;;4970777;28;20018;-75
2022/05/21 04:36:17;;;;;;;4.40;2.90;;;16.70;64.30;;;;;;4970136;28;20379;-75
2022/05/21 04:38:43;;;;;;;3.58;2.88;;;16.70;64.30;;;;;;4972400;28;20114;-75
2022/05/21 04:41:10;;;;;;;4.70;3.10;;;16.80;64.30;;;;;;4953218;28;20113;-76
2022/05/21 04:43:36;;;;;;;3.72;2.92;;;16.70;64.30;;;;;;4970236;28;20031;-75
2022/05/21 04:46:02;;;;;;;3.53;2.55;;;16.70;64.30;;;;;;4969598;28;20042;-76
2022/05/21 04:48:28;;;;;;;4.57;3.30;;;16.70;64.30;;;;;;4970259;28;20058;-75
2022/05/21 04:51:02;;;;;;;3.35;2.67;;;16.70;64.30;;;;;;4970047;28;20074;-75
2022/05/21 04:53:30;;;;;;;4.50;3.00;;;16.80;64.40;;;;;;4970318;28;20114;-75
2022/05/21 04:55:56;;;;;;;5.57;3.20;;;16.80;64.30;;;;;;4961632;28;20038;-76
2022/05/21 04:58:22;;;;;;;4.35;2.88;;;16.70;64.30;;;;;;4952667;28;20038;-76
2022/05/21 05:00:48;;;;;;;2.97;2.47;;;16.70;64.30;;;;;;4970245;28;20466;-75
2022/05/21 05:03:16;;;;;;;5.47;2.85;;;16.70;64.30;;;;;;4970533;28;20123;-76
2022/05/21 05:05:43;;;;;;;2.97;2.67;;;16.80;64.40;;;;;;4952519;28;20033;-74
2022/05/21 05:08:10;;;;;;;3.65;2.53;;;16.80;64.40;;;;;;4953635;28;20467;-75
2022/05/21 05:10:38;;;;;;;4.07;3.10;;;16.80;64.40;;;;;;4968588;28;20027;-76
2022/05/21 05:13:06;;;;;;;4.05;3.00;;;16.80;64.40;;;;;;4969111;28;20126;-75
2022/05/21 05:15:32;;;;;;;4.00;2.95;;;16.80;64.40;;;;;;4951404;28;20027;-75
2022/05/21 05:18:07;;;;;;;4.20;3.00;;;16.80;64.40;;;;;;4969228;28;20038;-75
2022/05/21 05:20:33;;;;;;;4.35;3.00;;;16.80;64.40;;;;;;4934716;28;20038;-75
2022/05/21 05:22:59;;;;;;;3.10;2.38;;;16.80;65.00;;;;;;4953208;28;20464;-76
2022/05/21 05:25:25;;;;;;;4.35;2.80;;;16.80;64.40;;;;;;4970492;28;20065;-75
2022/05/21 05:27:51;;;;;;;4.40;3.00;;;16.80;64.40;;;;;;4952968;28;20086;-76
2022/05/21 05:30:19;;;;;;;4.47;2.80;;;16.80;64.50;;;;;;4969119;28;20122;-76
2022/05/21 05:32:45;;;;;;;4.30;3.20;;;16.80;64.40;;;;;;4969444;28;20023;-75
2022/05/21 05:35:14;;;;;;;4.20;2.85;;;16.80;64.40;;;;;;4969257;28;20191;-75
2022/05/21 05:37:40;;;;;;;4.47;2.70;;;16.80;64.50;;;;;;4968638;28;20022;-75
2022/05/21 05:40:11;;;;;;;4.72;2.88;;;16.80;64.40;;;;;;4970009;28;20402;-75
2022/05/21 05:42:38;;;;;;;4.22;2.85;;;16.80;64.50;;;;;;4969629;28;20147;-75
2022/05/21 05:45:08;;;;;;;4.32;2.90;;;16.80;64.50;;;;;;4958456;28;20047;-75
2022/05/21 05:47:34;;;;;;;4.40;2.78;;;16.80;64.50;;;;;;4970022;28;20030;-75
2022/05/21 05:50:00;;;;;;;4.43;2.58;;;16.80;64.50;;;;;;4970214;28;20031;-75
2022/05/21 05:52:27;;;;;;;2.85;2.33;;;16.80;64.50;;;;;;4968919;28;20051;-75
2022/05/21 05:54:53;;;;;;;3.45;2.75;;;16.90;64.60;;;;;;4971478;28;20039;-75
2022/05/21 05:57:19;;;;;;;5.82;2.78;;;16.90;64.60;;;;;;4968988;28;20023;-75
2022/05/21 05:59:48;;;;;;;4.50;2.45;;;16.90;64.60;;;;;;4968846;28;20023;-75
2022/05/21 06:05:06;;;;;;;4.55;2.70;;;16.90;64.60;;;;;;4972105;28;20031;-75
2022/05/21 06:07:32;;;;;;;3.53;2.28;;;16.90;64.60;;;;;;4958346;28;20022;-76
2022/05/21 06:10:05;;;;;;;3.55;2.35;;;16.90;64.60;;;;;;4973261;28;20089;-75
2022/05/21 06:12:31;;;;;;;2.78;2.20;;;16.90;64.60;;;;;;4972295;28;20046;-75
2022/05/21 06:14:58;;;;;;;3.30;2.00;;;16.90;64.50;;;;;;4972693;28;20050;-75
2022/05/21 06:17:25;;;;;;;3.45;2.08;;;16.90;64.60;;;;;;4972186;28;20049;-75
2022/05/21 06:19:52;;;;;;;3.53;2.25;;;16.90;64.60;;;;;;4972061;28;20539;-75
2022/05/21 06:22:17;;;;;;;3.40;2.08;;;16.90;64.60;;;;;;4939648;28;20055;-76
2022/05/21 06:24:43;;;;;;;3.40;2.28;;;17.00;64.60;;;;;;4952899;28;20019;-75
2022/05/21 06:27:09;;;;;;;3.50;2.13;;;17.00;64.60;;;;;;4971627;28;20034;-74
2022/05/21 06:29:38;;;;;;;3.30;2.17;;;17.00;64.60;;;;;;4952726;28;20026;-75
2022/05/21 06:32:06;;;;;;;3.05;2.00;;;17.00;64.60;;;;;;4969864;28;20129;-76
2022/05/21 06:34:32;;;;;;;5.10;2.25;;;17.00;64.60;;;;;;4955669;28;20051;-76
2022/05/21 06:37:07;;;;;;;4.32;2.00;;;17.00;64.90;;;;;;4972342;28;20049;-76
2022/05/21 06:39:35;;;;;;;3.58;2.13;;;17.00;64.70;;;;;;4965169;28;20403;-75
2022/05/21 06:42:02;;;;;;;2.53;1.77;;;17.00;64.60;;;;;;4971928;28;20053;-74
2022/05/21 06:44:28;;;;;;;3.83;2.10;;;17.10;64.60;;;;;;4972368;28;20034;-75
2022/05/21 06:46:55;;;;;;;3.50;2.15;;;17.10;64.60;;;;;;4971834;28;20030;-75
2022/05/21 06:49:21;;;;;;;2.53;1.90;;;17.10;64.60;;;;;;4971360;28;20038;-75
2022/05/21 06:51:48;;;;;;;2.08;1.88;;;17.10;64.60;;;;;;4971547;28;20031;-75
2022/05/21 06:54:16;;;;;;;2.85;1.92;;;17.10;64.60;;;;;;4971824;28;20109;-75
2022/05/21 06:56:42;;;;;;;3.38;1.80;;;17.20;64.60;;;;;;4971767;28;20062;-75
2022/05/21 06:59:07;;;;;;;4.10;1.98;;;17.20;64.60;;;;;;4952681;28;20023;-74
2022/05/21 07:01:33;;;;;;;4.53;2.00;;;17.20;64.60;;;;;;4955038;28;20480;-75
2022/05/21 07:03:59;;;;;;;3.17;1.90;;;17.20;64.60;;;;;;4972375;28;20073;-75
2022/05/21 07:09:09;;;;;;;3.17;1.90;;;17.20;64.50;;;;;;4968158;28;20049;-76
2022/05/21 07:11:37;;;;;;;3.63;1.80;;;17.30;64.50;;;;;;4971128;28;20054;-74
2022/05/21 07:14:03;;;;;;;2.05;1.65;;;17.30;64.60;;;;;;4970833;28;20030;-76
2022/05/21 07:16:29;;;;;;;3.75;1.67;;;17.30;64.50;;;;;;4953402;28;20031;-76
2022/05/21 07:18:55;;;;;;;2.65;1.95;;;17.40;64.60;;;;;;4937729;28;20031;-75
2022/05/21 07:21:21;;;;;;;2.90;1.73;;;17.40;64.60;;;;;;4977015;28;20466;-76
2022/05/21 07:23:48;;;;;;;4.53;1.70;;;17.40;64.50;;;;;;4972069;28;20128;-75
2022/05/21 07:26:15;;;;;;;2.80;1.70;;;17.50;64.60;;;;;;4954604;28;20097;-75
2022/05/21 07:28:44;;;;;;;2.50;1.65;;;17.50;65.20;;;;;;4963171;28;20019;-76
2022/05/21 07:31:10;;;;;;;4.63;1.60;;;17.50;64.50;;;;;;4953767;28;20476;-75
2022/05/21 07:33:36;;;;;;;4.40;1.75;;;17.50;64.50;;;;;;4971802;28;20027;-75
2022/05/21 07:36:02;;;;;;;2.92;1.45;;;17.60;64.50;;;;;;4955200;28;20057;-75
2022/05/21 07:38:28;;;;;;;2.10;1.50;;;17.60;64.50;;;;;;4970646;28;20062;-75
2022/05/21 07:40:54;;;;;;;2.38;1.40;;;17.60;64.40;;;;;;4970657;28;20019;-75
2022/05/21 07:43:27;;;;;;;2.22;1.40;;;17.70;64.40;;;;;;4970498;28;20122;-77
2022/05/21 07:46:00;;;;;;;4.57;1.70;;;17.70;64.30;;;;;;4965625;28;20027;-75
2022/05/21 07:48:27;;;;;;;3.47;1.70;;;17.70;64.30;;;;;;4954759;28;20473;-75
2022/05/21 07:50:58;;;;;;;1.92;1.40;;;17.80;64.30;;;;;;4965737;28;20031;-75
2022/05/21 07:53:28;;;;;;;3.35;1.63;;;17.80;64.30;;;;;;4971076;28;20045;-75
2022/05/21 07:55:55;;;;;;;1.58;1.42;;;17.90;64.30;;;;;;4970791;28;20035;-75
2022/05/21 07:58:23;;;;;;;2.92;1.60;;;17.90;64.20;;;;;;4954609;28;20023;-75
2022/05/21 08:00:51;;;;;;;3.25;1.52;;;17.90;64.10;;;;;;4970162;28;20404;-76
2022/05/21 08:03:19;;;;;;;3.33;1.55;;;18.00;64.10;;;;;;4970588;28;20038;-75
2022/05/21 08:05:45;;;;;;;3.13;1.50;;;18.00;64.00;;;;;;4970042;28;20518;-74
2022/05/21 08:08:12;;;;;;;2.72;1.45;;;18.00;64.00;;;;;;4970661;28;20105;-75
2022/05/21 08:10:42;;;;;;;2.53;1.42;;;18.10;64.00;;;;;;4946512;28;20039;-75
2022/05/21 08:13:10;;;;;;;3.35;1.80;;;18.20;63.90;;;;;;4971893;28;20522;-75
2022/05/21 08:15:37;;;;;;;2.08;1.20;;;18.20;63.90;;;;;;4946545;28;20046;-75
2022/05/21 08:18:05;;;;;;;2.13;1.30;;;18.30;63.80;;;;;;4970276;28;20035;-75
2022/05/21 08:20:31;;;;;;;3.90;1.60;;;18.40;63.80;;;;;;4967114;28;20028;-75
2022/05/21 08:28:26;;;;;;;2.73;1.60;;;18.50;63.50;;;;;;4971014;28;20398;-74
2022/05/21 08:30:52;;;;;;;3.13;1.60;;;18.50;63.40;;;;;;4970674;28;20054;-75
2022/05/21 08:33:19;;;;;;;3.05;1.48;;;18.60;63.40;;;;;;4971448;28;20073;-75
2022/05/21 08:35:45;;;;;;;2.83;1.35;;;18.70;63.50;;;;;;4952017;28;20467;-75
2022/05/21 08:38:12;;;;;;;2.50;1.50;;;18.70;63.40;;;;;;4974270;28;20034;-77
2022/05/21 08:40:45;;;;;;;3.42;1.70;;;18.70;63.30;;;;;;4953520;28;20593;-76
2022/05/21 08:43:23;;;;;;;2.65;1.40;;;18.80;63.40;;;;;;4967612;28;20047;-75
2022/05/21 08:46:17;;;;;;;1.40;1.13;;;18.90;63.40;;;;;;4969430;28;20041;-75
2022/05/21 08:48:55;;;;;;;3.45;1.30;;;18.90;63.20;;;;;;4964076;28;20027;-75
2022/05/21 08:51:26;;;;;;;3.72;1.65;;;19.00;63.10;;;;;;4968230;28;20058;-76
2022/05/21 08:53:53;;;;;;;2.65;1.50;;;19.10;63.10;;;;;;4960238;28;20109;-75
2022/05/21 08:56:20;;;;;;;2.63;1.20;;;19.10;63.00;;;;;;4953722;28;20062;-75
2022/05/21 08:58:48;;;;;;;3.08;1.25;;;19.20;62.90;;;;;;4969623;28;20027;-76
2022/05/21 09:01:21;;;;;;;2.33;1.17;;;19.20;62.90;;;;;;4969412;28;20034;-75
2022/05/21 09:03:50;;;;;;;2.70;1.50;;;19.30;62.80;;;;;;4968863;28;20030;-76
2022/05/21 09:06:18;;;;;;;2.85;1.38;;;19.40;62.70;;;;;;4945493;28;20508;-75
2022/05/21 09:09:05;;;;;;;2.85;1.40;;;19.50;62.60;;;;;;4968748;28;20023;-75
2022/05/21 09:11:40;;;;;;;3.05;1.23;;;19.50;62.70;;;;;;4966780;28;20057;-76
2022/05/21 09:14:21;;;;;;;3.38;1.60;;;19.60;62.50;;;;;;4983023;28;20031;-75
2022/05/21 09:16:56;;;;;;;2.72;1.40;;;19.70;62.40;;;;;;4950328;29;20063;-75
2022/05/21 09:19:25;;;;;;;;;;;19.70;62.30;;;;;;4969944;28;20023;-75
2022/05/21 09:22:00;;;;;;;3.13;1.30;;;19.70;62.10;;;;;;4969285;28;19918;-75
2022/05/21 09:24:43;;;;;;;2.70;1.52;;;19.80;62.20;;;;;;4943254;28;20109;-75
2022/05/21 09:27:38;;;;;;;1.17;1.05;;;19.80;62.20;;;;;;4969577;28;20042;-75
2022/05/21 09:30:12;;;;;;;2.30;1.30;;;19.90;62.30;;;;;;4968162;28;20070;-76
2022/05/21 09:32:40;;;;;;;2.20;1.30;;;19.90;62.20;;;;;;4969525;28;20050;-75
2022/05/21 09:35:16;;;;;;;2.85;1.50;;;20.00;62.10;;;;;;4953838;28;20437;-75
2022/05/21 09:37:43;;;;;;;2.10;1.25;;;20.00;62.10;;;;;;4970607;28;20411;-75
2022/05/21 09:40:28;;;;;;;1.73;1.35;;;20.10;62.00;;;;;;4941359;28;20030;-75
2022/05/21 09:45:39;;;;;;;2.08;1.25;;;20.20;61.90;;;;;;4967874;28;20038;-77
2022/05/21 09:48:07;;;;;;;2.42;1.38;;;20.20;61.70;;;;;;4941051;28;20438;-75
2022/05/21 09:50:44;;;;;;;3.05;1.30;;;20.30;61.80;;;;;;4972736;28;20023;-75
2022/05/21 09:53:24;;;;;;;1.83;1.35;;;20.30;61.70;;;;;;4978157;28;20047;-75
2022/05/21 09:56:02;;;;;;;1.70;1.15;;;20.40;61.70;;;;;;4972099;28;20354;-76
2022/05/21 09:58:32;;;;;;;2.00;1.20;;;20.40;61.60;;;;;;4972726;28;20042;-75
2022/05/21 10:00:59;;;;;;;1.92;1.30;;;20.40;61.50;;;;;;4972784;28;20142;-75
2022/05/21 10:03:49;;;;;;;3.00;1.42;;;20.50;61.50;;;;;;4956515;28;20042;-75
2022/05/21 10:06:21;;;;;;;2.28;1.30;;;20.50;61.60;;;;;;4972153;28;20089;-75
2022/05/21 10:11:52;;;;;;;2.53;1.60;;;20.60;61.40;;;;;;4971140;28;20125;-75
2022/05/21 10:14:23;;;;;;;2.65;1.40;;;20.60;61.40;;;;;;4969585;28;20104;-75
2022/05/21 10:16:58;;;;;;;1.80;1.40;;;20.70;61.40;;;;;;4955904;28;20023;-75
2022/05/21 10:19:57;;;;;;;2.10;1.33;;;20.70;61.40;;;;;;4972390;28;20483;-75
2022/05/21 10:22:41;;;;;;;2.28;1.55;;;20.70;61.30;;;;;;4966326;28;20067;-75
2022/05/21 10:25:13;;;;;;;2.15;1.27;;;20.70;61.20;;;;;;4955804;28;20026;-75
2022/05/21 10:27:50;;;;;;;2.85;1.45;;;20.80;61.20;;;;;;4973536;28;20023;-76
2022/05/21 10:30:39;;;;;;;2.78;1.35;;;20.80;61.20;;;;;;4977867;28;20031;-74
2022/05/21 10:33:21;;;;;;;1.92;1.50;;;20.90;61.20;;;;;;4969712;28;20027;-75
2022/05/21 10:35:56;;;;;;;2.17;1.50;;;20.90;61.20;;;;;;4971961;28;20042;-75
2022/05/21 10:38:42;;;;;;;3.13;1.67;;;20.90;61.10;;;;;;4971630;28;20025;-74
2022/05/21 10:41:28;;;;;;;2.45;1.20;;;21.00;61.20;;;;;;4972091;28;20118;-75
2022/05/21 10:44:11;;;;;;;2.67;1.42;;;21.00;61.10;;;;;;4972393;28;20042;-75
2022/05/21 10:47:15;;;;;;;1.90;1.40;;;21.00;61.00;;;;;;4969130;28;20050;-75
2022/05/21 10:50:13;;;;;;;3.30;1.40;;;21.10;61.00;;;;;;4949190;28;20110;-75
2022/05/21 10:53:16;;;;;;;2.88;1.70;;;21.10;61.00;;;;;;4970683;28;20463;-75
2022/05/21 10:56:14;;;;;;;3.30;1.75;;;21.20;60.90;;;;;;4972808;28;20027;-74
2022/05/21 10:59:13;;;;;;;2.92;1.70;;;21.20;60.90;;;;;;4920666;28;20591;-76
2022/05/21 11:02:00;;;;;;;2.42;1.30;;;21.20;60.80;;;;;;4979499;28;20070;-74
2022/05/21 11:04:58;;;;;;;3.17;1.50;;;21.30;60.80;;;;;;4971168;28;20502;-75
2022/05/21 11:07:54;;;;;;;2.33;1.60;;;21.30;60.80;;;;;;4971584;28;20503;-75
2022/05/21 11:10:34;;;;;;;1.55;1.08;;;21.40;60.80;;;;;;4948827;28;20478;-75
2022/05/21 11:13:30;;;;;;;3.65;1.40;;;21.40;60.70;;;;;;4971138;28;20035;-76
2022/05/21 11:16:04;;;;;;;2.20;1.30;;;21.40;60.60;;;;;;4964107;28;20537;-75
2022/05/21 11:19:02;;;;;;;1.40;1.23;;;21.50;60.60;;;;;;4971357;28;20526;-75
2022/05/21 11:21:33;;;;;;;1.50;1.35;;;21.50;60.60;;;;;;4967871;28;20045;-75
2022/05/21 11:24:33;;;;;;;3.53;1.50;;;21.60;60.50;;;;;;4970835;28;20430;-76
2022/05/21 11:27:08;;;;;;;3.10;1.50;;;21.60;60.50;;;;;;4968450;28;20023;-75
2022/05/21 11:29:40;;;;;;;2.17;1.33;;;21.60;60.40;;;;;;4968476;28;20444;-75
2022/05/21 11:37:47;;;;;;;2.72;1.40;;;21.80;60.40;;;;;;4969969;28;20022;-75
2022/05/21 11:40:50;;;;;;;2.30;1.30;;;21.80;60.30;;;;;;4970711;28;20022;-75
2022/05/21 11:43:16;;;;;;;2.05;1.15;;;21.80;60.40;;;;;;4975865;28;20487;-76
2022/05/21 11:45:58;;;;;;;2.25;1.38;;;21.90;60.30;;;;;;4972287;28;20027;-75
2022/05/21 11:48:28;;;;;;;3.92;1.65;;;21.90;60.40;;;;;;4968901;28;20463;-76
2022/05/21 11:51:17;;;;;;;2.55;1.65;;;21.90;60.30;;;;;;4970683;28;20023;-76
2022/05/21 11:53:45;;;;;;;2.58;1.50;;;21.90;60.30;;;;;;4944374;28;20070;-77
2022/05/21 11:56:13;;;;;;;2.95;2.00;;;22.00;60.20;;;;;;4955091;28;20052;-75
2022/05/21 11:58:57;;;;;;;3.10;1.58;;;22.00;60.20;;;;;;4969981;28;20053;-76
2022/05/21 12:01:41;;;;;;;1.88;1.38;;;22.00;60.30;;;;;;4971435;28;20034;-76
2022/05/21 12:04:37;;;;;;;3.20;1.60;;;22.10;60.20;;;;;;4971773;28;20046;-76
2022/05/21 12:07:12;;;;;;;1.98;1.27;;;22.10;60.30;;;;;;4955580;28;20042;-77
2022/05/21 12:09:58;;;;;;;2.35;1.42;;;22.10;60.10;;;;;;4967472;28;20033;-76
2022/05/21 12:12:24;;;;;;;2.33;1.50;;;22.10;60.20;;;;;;4960996;28;20391;-76
2022/05/21 12:14:56;;;;;;;1.70;1.30;;;22.20;60.10;;;;;;4970137;28;20027;-75
2022/05/21 12:17:43;;;;;;;3.28;1.50;;;22.20;60.10;;;;;;4970285;28;20062;-75
2022/05/21 12:20:12;;;;;;;2.90;1.33;;;22.20;60.10;;;;;;4971348;28;20046;-76
2022/05/21 12:22:44;;;;;;;3.25;1.50;;;22.30;60.10;;;;;;4972827;28;20479;-75
2022/05/21 12:25:32;;;;;;;1.95;1.35;;;22.30;60.00;;;;;;4971193;28;20130;-75
2022/05/21 12:28:02;;;;;;;2.58;1.50;;;22.30;60.00;;;;;;4959072;28;20039;-75
2022/05/21 12:30:29;;;;;;;2.30;1.20;;;22.30;60.00;;;;;;4971364;28;20042;-75
2022/05/21 12:32:56;;;;;;;1.67;1.25;;;22.30;59.90;;;;;;4969753;28;20139;-75
2022/05/21 12:35:41;;;;;;;2.78;1.33;;;22.30;59.90;;;;;;4969657;28;20027;-75
2022/05/21 12:38:30;;;;;;;2.28;1.35;;;22.40;60.00;;;;;;4970765;28;20034;-76
2022/05/21 12:41:07;;;;;;;2.45;1.52;;;22.40;60.00;;;;;;4966214;28;20034;-75
2022/05/21 12:43:53;;;;;;;2.25;1.40;;;22.40;59.80;;;;;;4970270;28;20113;-75
2022/05/21 12:46:28;;;;;;;3.55;1.40;;;22.50;60.00;;;;;;4969475;28;20452;-75
2022/05/21 12:48:57;;;;;;;3.92;1.30;;;22.40;59.80;;;;;;4971219;28;20030;-75
2022/05/21 12:51:40;;;;;;;1.55;1.13;;;22.50;59.90;;;;;;4953511;28;20483;-75
2022/05/21 12:54:25;;;;;;;2.42;1.25;;;22.50;59.90;;;;;;4965172;28;20391;-76
2022/05/21 12:56:52;;;;;;;2.35;1.23;;;22.50;59.90;;;;;;4969892;28;20359;-75
2022/05/21 12:59:22;;;;;;;2.65;1.35;;;22.50;59.80;;;;;;4970260;28;20070;-75
2022/05/21 13:01:58;;;;;;;3.08;1.60;;;22.50;59.80;;;;;;4969182;28;20126;-75
2022/05/21 13:04:34;;;;;;;3.63;1.60;;;22.50;59.70;;;;;;4953610;28;20474;-76
2022/05/21 13:07:04;;;;;;;2.13;1.30;;;22.60;59.80;;;;;;4968454;28;20027;-75
2022/05/21 13:09:32;;;;;;;2.63;1.30;;;22.60;59.70;;;;;;4970204;28;20022;-76
2022/05/21 13:11:58;;;;;;;2.33;1.25;;;22.60;59.70;;;;;;4951593;28;20097;-76
2022/05/21 13:14:36;;;;;;;2.05;1.30;;;22.60;59.70;;;;;;4973937;28;20395;-76
2022/05/21 13:17:03;;;;;;;2.00;1.20;;;22.60;59.70;;;;;;4972933;28;20114;-75
2022/05/21 13:19:57;;;;;;;2.42;1.50;;;22.60;59.70;;;;;;4957564;28;20057;-76
2022/05/21 13:22:30;;;;;;;2.42;1.42;;;22.60;59.70;;;;;;4967734;28;20129;-76
2022/05/21 13:25:06;;;;;;;2.45;1.40;;;22.60;59.60;;;;;;4972716;28;20110;-76
2022/05/21 13:27:47;;;;;;;2.60;1.20;;;22.70;59.60;;;;;;4970120;28;20101;-76
2022/05/21 13:30:20;;;;;;;2.85;1.50;;;22.70;59.70;;;;;;4973024;28;20455;-76
2022/05/21 13:32:56;;;;;;;2.58;1.30;;;22.70;59.60;;;;;;4973196;28;20375;-76
2022/05/21 13:35:43;;;;;;;3.05;1.20;;;22.70;59.60;;;;;;4955455;28;20014;-76
2022/05/21 13:38:13;;;;;;;1.45;1.20;;;22.80;59.70;;;;;;4977766;28;20065;-76